Time;durP1;ratioP1;P1;durP2;ratioP2;P2;SDS_P1;SDS_P2;PMS_P1;PMS_P2;Temp;Humidity;BMP_temperature;BMP_pressure;BME280_temperature;BME280_humidity;BME280_pressure;Samples;Min_cycle;Max_cycle;Signal;HPM_P1;HPM_P2
2023/04/09 00:02:09;;;;;;;54.75;38.03;;;;;;;9.09;100.00;102393.69;5221026;28;20048;-67
2023/04/09 00:04:40;;;;;;;54.22;39.83;;;;;;;9.09;100.00;102392.81;5223172;28;20030;-67
2023/04/09 00:07:11;;;;;;;52.97;37.58;;;;;;;9.14;100.00;102388.16;5221735;28;20102;-67
2023/04/09 00:09:43;;;;;;;60.95;40.60;;;;;;;9.16;100.00;102395.13;5226593;28;20225;-67
2023/04/09 00:12:14;;;;;;;55.92;39.03;;;;;;;9.05;100.00;102384.13;5223720;28;20388;-67
2023/04/09 00:14:46;;;;;;;55.30;39.60;;;;;;;9.16;100.00;102389.78;5225854;28;20029;-67
2023/04/09 00:17:17;;;;;;;52.13;37.63;;;;;;;9.14;100.00;102382.81;5223113;28;20030;-67
2023/04/09 00:19:49;;;;;;;54.67;38.13;;;;;;;9.13;100.00;102387.28;5224777;28;20924;-67
2023/04/09 00:22:20;;;;;;;48.72;35.30;;;;;;;9.20;100.00;102385.19;5227036;28;20033;-67
2023/04/09 00:24:51;;;;;;;51.78;36.38;;;;;;;9.04;100.00;102385.03;5224267;28;20044;-67
2023/04/09 00:27:23;;;;;;;49.30;36.53;;;;;;;9.09;100.00;102383.03;5227785;28;20069;-67
2023/04/09 00:29:55;;;;;;;47.15;33.67;;;;;;;9.06;100.00;102383.19;5227593;28;20391;-67
2023/04/09 00:32:26;;;;;;;46.63;32.50;;;;;;;9.03;100.00;102378.88;5223744;28;20057;-67
2023/04/09 00:34:57;;;;;;;43.38;32.95;;;;;;;9.08;100.00;102381.31;5224984;28;20168;-67
2023/04/09 00:37:29;;;;;;;48.05;33.78;;;;;;;9.04;100.00;102377.06;5229202;28;20029;-67
2023/04/09 00:40:00;;;;;;;41.90;31.73;;;;;;;9.18;100.00;102379.09;5225919;28;20033;-67
2023/04/09 00:42:33;;;;;;;40.67;30.73;;;;;;;9.06;100.00;102382.31;5228179;28;20104;-67
2023/04/09 00:45:05;;;;;;;41.28;31.50;;;;;;;9.11;100.00;102383.84;5222813;28;20056;-67
2023/04/09 00:47:37;;;;;;;42.72;32.08;;;;;;;9.08;100.00;102375.97;5222682;28;20027;-67
2023/04/09 00:50:09;;;;;;;42.47;31.50;;;;;;;9.08;100.00;102380.44;5227192;28;20399;-67
2023/04/09 00:52:40;;;;;;;43.90;31.13;;;;;;;9.04;100.00;102374.41;5221838;28;20467;-67
2023/04/09 00:55:12;;;;;;;44.55;30.95;;;;;;;9.08;100.00;102375.13;5224837;28;20113;-67
2023/04/09 00:57:44;;;;;;;41.88;30.13;;;;;;;9.02;100.00;102369.13;5225013;28;20033;-67
2023/04/09 01:00:15;;;;;;;40.30;30.25;;;;;;;9.05;100.00;102370.81;5227155;28;20037;-67
2023/04/09 01:02:48;;;;;;;39.17;29.42;;;;;;;9.08;100.00;102373.31;5224471;28;20079;-67
2023/04/09 01:05:19;;;;;;;39.50;28.95;;;;;;;9.12;100.00;102374.91;5221002;28;20029;-67
2023/04/09 01:08:24;;;;;;;37.83;28.90;;;;;;;9.09;100.00;102371.50;5222936;28;20495;-67
2023/04/09 01:11:06;;;;;;;36.88;28.33;;;;;;;8.99;100.00;102365.75;5223185;28;20034;-67
2023/04/09 01:13:49;;;;;;;38.40;28.23;;;;;;;9.04;100.00;102353.09;5220432;28;20487;-67
2023/04/09 01:16:22;;;;;;;41.10;28.63;;;;;;;9.00;100.00;102362.16;5216778;28;20045;-67
2023/04/09 01:19:01;;;;;;;37.37;29.00;;;;;;;9.03;100.00;102357.56;5222276;28;20108;-67
2023/04/09 01:21:33;;;;;;;34.08;26.23;;;;;;;8.98;100.00;102348.91;5224863;28;20375;-67
2023/04/09 01:24:15;;;;;;;35.63;27.50;;;;;;;8.95;100.00;102358.84;5224765;28;20025;-67
2023/04/09 01:27:02;;;;;;;36.35;27.27;;;;;;;8.94;100.00;102359.78;5225542;28;20025;-67
2023/04/09 01:29:49;;;;;;;36.90;26.98;;;;;;;9.00;100.00;102354.19;5225057;28;20116;-67
2023/04/09 01:32:22;;;;;;;34.83;27.48;;;;;;;8.91;100.00;102358.09;5224635;28;20440;-67
2023/04/09 01:34:55;;;;;;;37.05;27.05;;;;;;;8.94;100.00;102349.13;5224326;28;20124;-67
2023/04/09 01:37:27;;;;;;;34.72;26.67;;;;;;;8.96;100.00;102356.09;5223347;28;20517;-67
2023/04/09 01:39:59;;;;;;;38.05;28.52;;;;;;;8.95;100.00;102356.16;5234384;28;20118;-68
2023/04/09 01:42:31;;;;;;;38.28;27.70;;;;;;;8.94;100.00;102357.13;5222168;28;20025;-67
2023/04/09 01:45:04;;;;;;;37.72;27.40;;;;;;;8.90;100.00;102353.72;5221122;28;20139;-67
2023/04/09 01:47:37;;;;;;;36.10;27.17;;;;;;;8.94;100.00;102347.34;5223780;28;20547;-68
2023/04/09 01:50:09;;;;;;;37.28;28.17;;;;;;;8.98;100.00;102348.06;5225365;28;20480;-67
2023/04/09 01:52:41;;;;;;;39.55;27.67;;;;;;;8.97;100.00;102351.63;5223441;28;20025;-68
2023/04/09 01:55:12;;;;;;;37.22;27.42;;;;;;;8.90;100.00;102343.09;5220755;28;20397;-67
2023/04/09 01:57:44;;;;;;;36.88;27.73;;;;;;;8.94;100.00;102343.81;5219789;28;20794;-67
2023/04/09 02:00:15;;;;;;;36.47;27.98;;;;;;;8.91;100.00;102349.25;5223282;28;20431;-67
2023/04/09 02:03:05;;;;;;;37.05;27.55;;;;;;;8.98;100.00;102348.06;5226415;28;20037;-67
2023/04/09 02:05:42;;;;;;;39.60;28.20;;;;;;;8.93;100.00;102350.91;5226400;28;20047;-67
2023/04/09 02:08:19;;;;;;;38.45;28.92;;;;;;;8.95;100.00;102348.19;5232666;28;20037;-67
2023/04/09 02:10:56;;;;;;;39.83;28.27;;;;;;;8.90;100.00;102353.72;5222006;28;20037;-67
2023/04/09 02:13:31;;;;;;;39.80;28.98;;;;;;;8.94;100.00;102346.47;5222503;28;20029;-67
2023/04/09 02:16:02;;;;;;;;;;;;;;;8.99;100.00;102349.78;5220786;28;20098;-67
2023/04/09 02:18:34;;;;;;;38.63;28.45;;;;;;;8.92;100.00;102345.69;5221423;28;19921;-67
2023/04/09 02:21:06;;;;;;;43.15;30.58;;;;;;;8.89;100.00;102337.81;5225651;28;20032;-67
2023/04/09 02:23:37;;;;;;;40.65;29.02;;;;;;;8.92;100.00;102338.56;5232387;28;20387;-67
2023/04/09 02:26:08;;;;;;;42.97;30.52;;;;;;;8.90;100.00;102344.84;5220661;28;20481;-67
2023/04/09 02:28:40;;;;;;;41.60;30.42;;;;;;;8.91;100.00;102334.16;5222301;28;20108;-67
2023/04/09 02:31:11;;;;;;;40.15;29.13;;;;;;;8.88;100.00;102336.97;5225153;28;20040;-67
2023/04/09 02:33:43;;;;;;;42.33;30.20;;;;;;;8.88;100.00;102336.09;5224028;28;20021;-67
2023/04/09 02:36:14;;;;;;;44.28;32.20;;;;;;;8.86;100.00;102344.16;5222256;28;20364;-67
2023/04/09 02:38:45;;;;;;;43.97;30.58;;;;;;;8.89;100.00;102341.34;5219836;28;20044;-67
2023/04/09 02:41:17;;;;;;;43.58;30.90;;;;;;;8.94;100.00;102336.69;5222595;28;20524;-67
2023/04/09 02:43:48;;;;;;;42.95;30.45;;;;;;;8.95;100.00;102337.53;5222730;28;20037;-67
2023/04/09 02:46:20;;;;;;;46.28;31.65;;;;;;;8.94;100.00;102335.81;5223327;28;20025;-67
2023/04/09 02:48:51;;;;;;;43.80;30.08;;;;;;;8.89;100.00;102338.69;5223013;28;20391;-67
2023/04/09 02:51:22;;;;;;;45.30;31.98;;;;;;;8.82;100.00;102329.22;5224595;28;20074;-67
2023/04/09 02:53:54;;;;;;;45.70;31.77;;;;;;;8.91;100.00;102333.28;5219958;28;20120;-67
2023/04/09 02:56:25;;;;;;;47.25;33.58;;;;;;;8.85;100.00;102334.44;5222018;28;20037;-67
2023/04/09 02:58:57;;;;;;;45.50;32.10;;;;;;;8.93;100.00;102331.41;5223179;28;20033;-67
2023/04/09 03:01:28;;;;;;;45.97;31.45;;;;;;;8.92;100.00;102327.06;5228757;28;20110;-67
2023/04/09 03:04:00;;;;;;;43.30;30.95;;;;;;;8.90;100.00;102327.13;5228822;28;20029;-67
2023/04/09 03:06:32;;;;;;;44.80;31.38;;;;;;;8.87;100.00;102326.38;5227979;28;20034;-67
2023/04/09 03:09:03;;;;;;;47.15;31.73;;;;;;;8.82;100.00;102327.47;5226799;28;20029;-67
2023/04/09 03:11:34;;;;;;;50.65;32.72;;;;;;;8.79;100.00;102319.59;5228472;28;20039;-67
2023/04/09 03:14:06;;;;;;;51.25;32.85;;;;;;;8.88;100.00;102321.00;5224330;28;20028;-68
2023/04/09 03:16:37;;;;;;;49.75;32.78;;;;;;;8.84;100.00;102311.44;5225580;28;20694;-67
2023/04/09 03:19:09;;;;;;;47.83;32.10;;;;;;;8.80;100.00;102315.13;5230145;28;20044;-67
2023/04/09 03:21:40;;;;;;;51.45;33.47;;;;;;;8.78;100.00;102315.22;5221853;28;20048;-68
2023/04/09 03:24:11;;;;;;;49.13;33.17;;;;;;;8.75;100.00;102304.72;5223680;28;20125;-67
2023/04/09 03:26:43;;;;;;;47.88;32.10;;;;;;;8.75;100.00;102307.38;5226486;28;20040;-67
2023/04/09 03:29:14;;;;;;;50.38;32.53;;;;;;;8.73;100.00;102306.59;5222595;28;20099;-67
2023/04/09 03:31:45;;;;;;;54.03;35.28;;;;;;;8.82;100.00;102306.16;5223632;28;20034;-67
2023/04/09 03:34:17;;;;;;;50.72;34.63;;;;;;;8.71;100.00;102311.13;5222262;28;20464;-67
2023/04/09 03:36:48;;;;;;;49.70;33.58;;;;;;;8.75;100.00;102304.72;5227011;28;20029;-67
2023/04/09 03:39:20;;;;;;;53.85;35.55;;;;;;;8.77;100.00;102308.16;5222539;28;20104;-67
2023/04/09 03:41:51;;;;;;;52.10;34.08;;;;;;;8.71;100.00;102307.59;5223867;28;20105;-67
2023/04/09 03:44:23;;;;;;;51.70;34.35;;;;;;;8.71;100.00;102308.44;5227044;28;20563;-67
2023/04/09 03:46:55;;;;;;;50.72;33.70;;;;;;;8.71;100.00;102300.47;5225742;28;20067;-67
2023/04/09 03:49:26;;;;;;;50.92;35.03;;;;;;;8.66;100.00;102304.28;5224066;28;20048;-67
2023/04/09 03:51:58;;;;;;;52.58;33.95;;;;;;;8.69;100.00;102304.16;5225220;28;20033;-67
2023/04/09 03:54:29;;;;;;;51.75;35.10;;;;;;;8.61;100.00;102296.47;5223138;28;20079;-67
2023/04/09 03:57:02;;;;;;;54.13;35.60;;;;;;;8.61;100.00;102297.38;5225131;28;20447;-67
2023/04/09 03:59:33;;;;;;;51.55;34.42;;;;;;;8.63;100.00;102298.16;5221873;28;20119;-67
2023/04/09 04:02:05;;;;;;;53.08;35.03;;;;;;;8.56;100.00;102285.19;5223458;28;20025;-67
2023/04/09 04:04:36;;;;;;;51.28;33.55;;;;;;;8.57;100.00;102298.44;5225492;28;20103;-67
2023/04/09 04:07:08;;;;;;;52.47;34.40;;;;;;;8.59;100.00;102298.34;5223591;28;20033;-67
2023/04/09 04:09:39;;;;;;;49.78;33.22;;;;;;;8.59;100.00;102304.56;5222570;28;20033;-67
2023/04/09 04:12:10;;;;;;;48.22;32.80;;;;;;;8.60;100.00;102305.41;5225993;28;20122;-67
2023/04/09 04:14:42;;;;;;;50.22;33.92;;;;;;;8.55;100.00;102308.28;5224492;28;20053;-67
2023/04/09 04:17:13;;;;;;;49.47;33.20;;;;;;;8.63;100.00;102298.16;5224216;28;20084;-67
2023/04/09 04:19:45;;;;;;;50.65;34.08;;;;;;;8.56;100.00;102303.81;5224019;28;20037;-67
2023/04/09 04:22:16;;;;;;;48.45;32.83;;;;;;;8.54;100.00;102298.56;5223947;28;20033;-67
2023/04/09 04:24:47;;;;;;;49.50;33.20;;;;;;;8.49;100.00;102294.38;5225271;28;20116;-67
2023/04/09 04:27:19;;;;;;;53.10;34.65;;;;;;;8.56;100.00;102301.16;5225920;28;20403;-67
2023/04/09 04:29:50;;;;;;;51.03;33.58;;;;;;;8.56;100.00;102298.50;5227838;28;20037;-67
2023/04/09 04:32:21;;;;;;;52.72;34.28;;;;;;;8.47;100.00;102294.44;5228999;28;20052;-67
2023/04/09 04:34:53;;;;;;;50.80;32.42;;;;;;;8.41;100.00;102289.38;5230341;28;20033;-67
2023/04/09 04:37:24;;;;;;;49.45;32.42;;;;;;;8.40;100.00;102288.50;5228286;28;20026;-67
2023/04/09 04:39:56;;;;;;;48.90;33.50;;;;;;;8.46;100.00;102291.84;5224647;28;20041;-67
2023/04/09 04:42:27;;;;;;;48.58;32.72;;;;;;;8.39;100.00;102292.09;5221212;28;20041;-68
2023/04/09 04:44:59;;;;;;;52.67;34.22;;;;;;;8.31;100.00;102299.53;5223893;28;20042;-67
2023/04/09 04:47:31;;;;;;;50.42;32.95;;;;;;;8.30;100.00;102299.59;5224016;28;20037;-67
2023/04/09 04:50:03;;;;;;;53.30;34.75;;;;;;;8.33;100.00;102299.47;5225491;28;20034;-67
2023/04/09 04:52:35;;;;;;;51.22;34.08;;;;;;;8.29;100.00;102300.56;5220879;28;20100;-67
2023/04/09 04:55:07;;;;;;;48.00;33.60;;;;;;;8.15;100.00;102298.47;5227988;28;20037;-69
2023/04/09 04:57:38;;;;;;;51.20;33.83;;;;;;;8.16;100.00;102300.22;5225644;28;20037;-67
2023/04/09 05:00:11;;;;;;;48.60;32.22;;;;;;;8.12;100.00;102303.94;5222924;28;20061;-67
2023/04/09 05:02:42;;;;;;;47.88;32.03;;;;;;;8.00;100.00;102297.34;5225585;28;20029;-67
2023/04/09 05:05:13;;;;;;;47.10;32.17;;;;;;;7.99;100.00;102299.13;5221944;28;20036;-67
2023/04/09 05:07:45;;;;;;;49.08;31.90;;;;;;;7.89;100.00;102297.78;5224688;28;20040;-67
2023/04/09 05:10:16;;;;;;;47.33;31.15;;;;;;;7.87;100.00;102294.34;5223669;28;20384;-67
2023/04/09 05:12:48;;;;;;;49.40;29.98;;;;;;;7.83;100.00;102298.91;5225498;28;20065;-67
2023/04/09 05:15:19;;;;;;;48.92;31.17;;;;;;;7.76;100.00;102293.91;5220384;28;20373;-67
2023/04/09 05:17:51;;;;;;;47.00;30.88;;;;;;;7.66;100.00;102291.63;5223065;28;20380;-67
2023/04/09 05:20:22;;;;;;;49.95;31.08;;;;;;;7.69;100.00;102295.09;5224195;28;20037;-67
2023/04/09 05:22:53;;;;;;;45.88;29.38;;;;;;;7.52;100.00;102304.63;5222919;28;20656;-67
2023/04/09 05:25:25;;;;;;;47.55;30.10;;;;;;;7.49;100.00;102301.22;5221430;28;20033;-68
2023/04/09 05:27:56;;;;;;;49.10;30.67;;;;;;;7.44;100.00;102304.03;5222474;28;20029;-67
2023/04/09 05:30:28;;;;;;;48.28;30.60;;;;;;;7.42;100.00;102297.94;5225135;28;20039;-67
2023/04/09 05:32:59;;;;;;;49.10;30.63;;;;;;;7.47;100.00;102301.28;5224923;28;20052;-67
2023/04/09 05:35:30;;;;;;;47.75;31.52;;;;;;;7.36;100.00;102306.16;5222822;28;20030;-67
2023/04/09 05:38:02;;;;;;;50.33;32.08;;;;;;;7.28;100.00;102305.59;5226468;28;20060;-67
2023/04/09 05:40:34;;;;;;;51.13;30.85;;;;;;;7.26;100.00;102303.84;5221222;28;20025;-66
2023/04/09 05:43:05;;;;;;;48.60;29.75;;;;;;;7.30;100.00;102298.44;5222808;28;20466;-67
2023/04/09 05:45:37;;;;;;;49.22;30.80;;;;;;;7.29;100.00;102297.56;5222623;28;20095;-67
2023/04/09 05:48:08;;;;;;;46.72;29.02;;;;;;;7.22;100.00;102302.25;5221023;28;20048;-67
2023/04/09 05:50:39;;;;;;;49.03;30.20;;;;;;;7.13;100.00;102302.59;5220886;28;20064;-67
2023/04/09 05:53:11;;;;;;;45.97;30.25;;;;;;;7.10;100.00;102296.56;5221913;28;20567;-67
2023/04/09 05:55:42;;;;;;;47.35;30.58;;;;;;;7.13;100.00;102302.59;5222473;28;20044;-67
2023/04/09 05:58:14;;;;;;;49.85;31.70;;;;;;;7.15;100.00;102306.06;5221675;28;20039;-67
2023/04/09 06:00:46;;;;;;;46.13;29.60;;;;;;;7.07;100.00;102306.34;5221951;28;20046;-67
2023/04/09 06:03:18;;;;;;;45.53;29.00;;;;;;;7.16;100.00;102313.09;5222104;28;20033;-67
2023/04/09 06:05:49;;;;;;;49.30;30.65;;;;;;;7.12;100.00;102316.81;5223761;28;20104;-67
2023/04/09 06:08:21;;;;;;;50.05;30.67;;;;;;;7.15;100.00;102314.03;5220833;28;20592;-67
2023/04/09 06:10:52;;;;;;;48.25;30.35;;;;;;;7.10;100.00;102316.00;5224319;28;20037;-67
2023/04/09 06:13:23;;;;;;;49.28;30.23;;;;;;;7.10;100.00;102323.09;5222029;28;20052;-67
2023/04/09 06:15:55;;;;;;;47.25;29.73;;;;;;;7.07;100.00;102319.63;5222620;28;20037;-67
2023/04/09 06:18:26;;;;;;;46.92;29.67;;;;;;;7.10;100.00;102323.97;5224288;28;20033;-67
2023/04/09 06:21:05;;;;;;;50.97;30.65;;;;;;;7.16;100.00;102318.41;5222516;28;20053;-67
2023/04/09 06:23:37;;;;;;;49.50;31.48;;;;;;;7.12;100.00;102314.16;5223983;28;20035;-67
2023/04/09 06:26:08;;;;;;;49.88;31.00;;;;;;;7.16;100.00;102315.75;5222275;28;20067;-67
2023/04/09 06:28:39;;;;;;;49.25;31.35;;;;;;;7.13;100.00;102318.50;5226819;28;20033;-67
2023/04/09 06:31:11;;;;;;;50.03;30.50;;;;;;;7.14;100.00;102317.59;5220981;28;20387;-67
2023/04/09 06:33:42;;;;;;;48.60;31.45;;;;;;;7.17;100.00;102324.56;5223444;28;20163;-67
2023/04/09 06:36:14;;;;;;;48.10;30.75;;;;;;;7.17;100.00;102317.50;5226483;28;20029;-67
2023/04/09 06:38:45;;;;;;;48.65;30.45;;;;;;;7.22;100.00;102325.28;5225642;28;20507;-67
2023/04/09 06:41:20;;;;;;;48.90;30.85;;;;;;;7.23;100.00;102321.72;5228804;28;20025;-67
2023/04/09 06:43:51;;;;;;;;;;;;;;;7.28;100.00;102326.81;5225944;28;20033;-67
2023/04/09 06:46:23;;;;;;;52.40;30.98;;;;;;;7.31;100.00;102324.91;5229984;28;19921;-67
2023/04/09 06:48:54;;;;;;;50.03;31.90;;;;;;;7.35;100.00;102330.97;5228064;28;20699;-67
2023/04/09 06:51:25;;;;;;;46.97;30.77;;;;;;;7.32;100.00;102329.28;5228352;28;20079;-67
2023/04/09 06:53:57;;;;;;;53.10;33.28;;;;;;;7.39;100.00;102328.13;5226126;28;20055;-67
2023/04/09 06:56:28;;;;;;;53.15;34.05;;;;;;;7.39;100.00;102335.25;5228136;28;20459;-67
2023/04/09 06:59:00;;;;;;;47.30;31.77;;;;;;;7.54;100.00;102339.09;5222575;28;20026;-67
2023/04/09 07:01:34;;;;;;;49.65;32.85;;;;;;;7.48;100.00;102340.19;5222357;28;20048;-67
2023/04/09 07:04:05;;;;;;;47.28;31.50;;;;;;;7.61;100.00;102330.81;5230062;28;20071;-67
2023/04/09 07:06:37;;;;;;;50.30;33.42;;;;;;;7.69;100.00;102337.59;5225610;28;20029;-67
2023/04/09 07:09:08;;;;;;;50.55;32.58;;;;;;;7.64;100.00;102336.00;5224555;28;20025;-67
2023/04/09 07:11:39;;;;;;;50.38;33.40;;;;;;;7.68;100.00;102343.84;5227050;28;20076;-68
2023/04/09 07:14:11;;;;;;;50.63;32.58;;;;;;;7.81;100.00;102330.00;5223569;28;20128;-67
2023/04/09 07:16:45;;;;;;;48.70;32.15;;;;;;;7.85;100.00;102333.41;5227557;28;20030;-67
2023/04/09 07:19:16;;;;;;;46.25;32.05;;;;;;;7.89;100.00;102336.78;5221419;28;20104;-67
2023/04/09 07:21:47;;;;;;;48.75;31.95;;;;;;;7.98;100.00;102337.28;5228572;28;20091;-67
2023/04/09 07:24:19;;;;;;;47.38;31.50;;;;;;;8.02;100.00;102336.22;5224627;28;20048;-67
2023/04/09 07:26:50;;;;;;;46.38;31.80;;;;;;;8.10;100.00;102337.69;5226035;28;20034;-68
2023/04/09 07:29:21;;;;;;;46.88;33.40;;;;;;;8.18;100.00;102336.44;5227803;28;20120;-67
2023/04/09 07:31:53;;;;;;;47.72;32.40;;;;;;;8.29;100.00;102343.94;5226767;28;20147;-68
2023/04/09 07:34:24;;;;;;;49.42;31.95;;;;;;;8.38;100.00;102343.56;5227732;28;20059;-67
2023/04/09 07:36:55;;;;;;;47.55;31.38;;;;;;;8.51;100.00;102343.91;5223783;28;20377;-68
2023/04/09 07:39:27;;;;;;;43.70;31.05;;;;;;;8.57;100.00;102340.13;5224677;28;20061;-67
2023/04/09 07:42:01;;;;;;;44.17;31.20;;;;;;;8.66;100.00;102334.38;5224176;28;20441;-68
2023/04/09 07:44:33;;;;;;;;;;;;;;;8.74;100.00;102344.69;5225201;28;20107;-67
2023/04/09 07:47:06;;;;;;;45.70;31.15;;;;;;;8.92;100.00;102343.03;5222696;28;19969;-67
2023/04/09 07:49:38;;;;;;;45.50;31.05;;;;;;;8.96;100.00;102333.97;5226498;28;20033;-67
2023/04/09 07:52:09;;;;;;;43.08;31.38;;;;;;;9.11;100.00;102337.69;5235815;28;20475;-67
2023/04/09 07:54:41;;;;;;;45.97;32.63;;;;;;;9.12;100.00;102334.97;5228944;28;20030;-67
2023/04/09 07:57:12;;;;;;;44.35;31.35;;;;;;;9.18;100.00;102341.81;5233780;28;20037;-67
2023/04/09 07:59:43;;;;;;;46.00;32.38;;;;;;;9.19;100.00;102343.53;5226937;28;20037;-67
2023/04/09 08:02:15;;;;;;;42.72;31.73;;;;;;;9.18;100.00;102342.66;5231358;28;20033;-67
2023/04/09 08:04:46;;;;;;;44.85;32.03;;;;;;;9.31;100.00;102334.09;5230428;28;20668;-67
2023/04/09 08:07:18;;;;;;;45.50;32.42;;;;;;;9.24;100.00;102322.88;5232166;28;20037;-67
2023/04/09 08:09:49;;;;;;;44.65;32.88;;;;;;;9.37;100.00;102325.81;5237903;28;20061;-67
2023/04/09 08:12:21;;;;;;;46.28;32.95;;;;;;;9.34;100.00;102331.28;5233981;28;20037;-67
2023/04/09 08:14:52;;;;;;;43.42;32.63;;;;;;;9.47;100.00;102328.91;5224713;28;20064;-67
2023/04/09 08:17:23;;;;;;;45.15;33.15;;;;;;;9.49;100.00;102327.03;5230682;28;20403;-67
2023/04/09 08:19:55;;;;;;;47.08;33.13;;;;;;;9.57;100.00;102333.72;5240704;28;20025;-67
2023/04/09 08:22:26;;;;;;;46.90;33.35;;;;;;;9.66;100.00;102339.53;5232554;28;20029;-67
2023/04/09 08:24:58;;;;;;;45.03;33.40;;;;;;;9.75;100.00;102333.75;5231576;28;20131;-67
2023/04/09 08:27:29;;;;;;;46.05;33.50;;;;;;;9.89;100.00;102328.59;5232623;28;20224;-67
2023/04/09 08:30:01;;;;;;;44.10;33.53;;;;;;;10.00;100.00;102330.75;5225253;28;20033;-67
2023/04/09 08:32:32;;;;;;;45.75;33.97;;;;;;;10.13;100.00;102333.66;5231577;28;20037;-67
2023/04/09 08:35:05;;;;;;;43.83;33.03;;;;;;;10.29;100.00;102326.59;5222826;28;20045;-67
2023/04/09 08:37:36;;;;;;;42.92;32.35;;;;;;;10.41;100.00;102333.13;5225491;28;20124;-67
2023/04/09 08:40:08;;;;;;;44.70;34.35;;;;;;;10.58;100.00;102327.78;5229975;28;20028;-67
2023/04/09 08:42:46;;;;;;;43.53;33.15;;;;;;;10.76;100.00;102325.09;5225928;28;20377;-67
2023/04/09 08:45:17;;;;;;;43.00;32.92;;;;;;;10.90;100.00;102327.00;5226270;28;20048;-67
2023/04/09 08:47:50;;;;;;;43.25;31.77;;;;;;;11.10;100.00;102325.91;5226195;28;20028;-67
2023/04/09 08:50:22;;;;;;;45.00;33.72;;;;;;;10.99;100.00;102321.16;5230282;28;20353;-67
2023/04/09 08:52:55;;;;;;;42.55;33.03;;;;;;;11.03;100.00;102320.06;5231231;28;20509;-67
2023/04/09 08:55:27;;;;;;;43.35;32.55;;;;;;;11.14;100.00;102319.44;5227321;28;20040;-67
2023/04/09 08:57:58;;;;;;;40.95;32.20;;;;;;;11.26;100.00;102317.91;5223746;28;20018;-67
2023/04/09 09:00:30;;;;;;;42.88;33.50;;;;;;;11.30;100.00;102314.13;5234955;28;20116;-67
2023/04/09 09:03:07;;;;;;;42.55;32.03;;;;;;;11.34;100.00;102313.00;5235243;28;20656;-67
2023/04/09 09:05:40;;;;;;;41.95;32.30;;;;;;;11.45;100.00;102313.25;5226349;28;20033;-68
2023/04/09 09:08:25;;;;;;;41.42;32.28;;;;;;;11.51;100.00;102323.59;5232483;28;20365;-67
2023/04/09 09:10:56;;;;;;;41.17;31.83;;;;;;;11.51;100.00;102320.06;5237177;28;20474;-67
2023/04/09 09:13:28;;;;;;;43.33;32.40;;;;;;;11.60;100.00;102316.00;5231217;28;20030;-67
2023/04/09 09:16:12;;;;;;;41.30;31.20;;;;;;;11.76;100.00;102314.19;5229821;28;20037;-67
2023/04/09 09:18:43;;;;;;;39.63;31.23;;;;;;;11.72;100.00;102321.50;5225419;28;20475;-67
2023/04/09 09:21:16;;;;;;;40.70;31.10;;;;;;;11.86;100.00;102315.34;5228963;28;21214;-67
2023/04/09 09:23:49;;;;;;;38.75;31.27;;;;;;;12.01;100.00;102316.31;5231793;28;20155;-67
2023/04/09 09:26:23;;;;;;;39.53;31.40;;;;;;;12.10;100.00;102314.88;5227999;28;20053;-67
2023/04/09 09:29:00;;;;;;;37.33;30.10;;;;;;;12.18;100.00;102314.44;5226034;28;20052;-67
2023/04/09 09:31:45;;;;;;;40.15;30.85;;;;;;;12.24;100.00;102308.72;5222069;28;20033;-67
2023/04/09 09:34:18;;;;;;;39.83;30.90;;;;;;;12.23;100.00;102305.16;5220170;28;20052;-67
2023/04/09 09:36:49;;;;;;;40.42;30.42;;;;;;;12.29;100.00;102302.16;5223129;28;20026;-67
2023/04/09 09:39:21;;;;;;;35.75;28.38;;;;;;;12.29;100.00;102302.16;5221704;28;20038;-67
2023/04/09 09:42:06;;;;;;;38.78;29.40;;;;;;;12.18;100.00;102301.03;5222683;28;20033;-68
2023/04/09 09:44:38;;;;;;;39.53;29.38;;;;;;;12.23;100.00;102293.63;5219629;28;20502;-67
2023/04/09 09:47:12;;;;;;;35.97;29.80;;;;;;;12.20;100.00;102286.66;5218319;28;20430;-67
2023/04/09 09:49:43;;;;;;;37.42;29.63;;;;;;;12.40;100.00;102300.63;5230765;28;20044;-67
2023/04/09 09:52:19;;;;;;;36.40;29.92;;;;;;;12.35;100.00;102284.88;5221313;28;20021;-67
2023/04/09 09:54:52;;;;;;;36.78;29.80;;;;;;;12.43;100.00;102279.03;5230675;28;20056;-67
2023/04/09 09:57:26;;;;;;;34.90;27.10;;;;;;;12.51;100.00;102274.06;5230851;28;20041;-67
2023/04/09 10:00:01;;;;;;;36.50;27.98;;;;;;;12.57;100.00;102276.34;5215642;28;20124;-67
2023/04/09 10:03:01;;;;;;;33.65;26.70;;;;;;;12.55;100.00;102264.88;5222141;28;20391;-67
2023/04/09 10:05:35;;;;;;;32.28;25.55;;;;;;;12.60;100.00;102268.16;5231627;28;20036;-66
2023/04/09 10:08:07;;;;;;;29.45;23.83;;;;;;;12.82;100.00;102275.66;5231945;28;20040;-67
2023/04/09 10:10:41;;;;;;;29.05;22.95;;;;;;;12.77;100.00;102282.28;5232442;28;20029;-67
2023/04/09 10:13:23;;;;;;;30.73;24.13;;;;;;;12.84;100.00;102275.59;5229608;28;20061;-67
2023/04/09 10:15:55;;;;;;;29.02;23.92;;;;;;;12.82;100.00;102277.50;5235300;28;20068;-67
2023/04/09 10:18:33;;;;;;;30.08;23.80;;;;;;;12.73;100.00;102269.09;5226688;28;20508;-67
2023/04/09 10:21:32;;;;;;;30.75;24.77;;;;;;;12.74;100.00;102259.25;5234456;28;20025;-67
2023/04/09 10:24:06;;;;;;;32.20;24.98;;;;;;;12.71;100.00;102257.63;5226375;28;20037;-67
2023/04/09 10:26:43;;;;;;;30.45;24.13;;;;;;;12.82;100.00;102258.75;5235184;28;20021;-67
2023/04/09 10:29:15;;;;;;;25.58;21.23;;;;;;;12.85;100.00;102253.22;5227878;28;20885;-67
2023/04/09 10:31:50;;;;;;;26.20;21.25;;;;;;;12.86;100.00;102252.25;5228752;28;20037;-67
2023/04/09 10:34:25;;;;;;;26.42;20.95;;;;;;;12.94;100.00;102250.81;5230771;28;20022;-67
2023/04/09 10:36:58;;;;;;;27.00;21.83;;;;;;;13.12;100.00;102245.22;5227289;28;20017;-67
2023/04/09 10:39:31;;;;;;;27.55;21.65;;;;;;;13.16;100.00;102244.06;5226643;28;20021;-67
2023/04/09 10:42:10;;;;;;;24.00;19.70;;;;;;;13.29;100.00;102239.63;5222835;28;20479;-67
2023/04/09 10:44:42;;;;;;;22.20;18.13;;;;;;;13.24;100.00;102238.19;5220314;28;20037;-67
2023/04/09 10:47:31;;;;;;;22.25;18.55;;;;;;;13.24;100.00;102235.50;5233802;28;20385;-67
2023/04/09 10:50:20;;;;;;;22.08;18.30;;;;;;;13.24;100.00;102239.03;5230446;28;20152;-67
2023/04/09 10:52:57;;;;;;;22.00;17.33;;;;;;;13.38;100.00;102227.44;5232326;28;20033;-67
2023/04/09 10:55:46;;;;;;;18.65;15.88;;;;;;;13.40;100.00;102221.97;5232025;28;20092;-67
2023/04/09 10:58:18;;;;;;;19.38;16.23;;;;;;;13.60;100.00;102228.72;5230174;28;20028;-67
2023/04/09 11:00:50;;;;;;;21.08;15.65;;;;;;;13.69;100.00;102220.00;5232733;28;20116;-67
2023/04/09 11:03:26;;;;;;;19.20;16.45;;;;;;;13.72;100.00;102225.19;5233644;28;20038;-67
2023/04/09 11:06:04;;;;;;;20.63;16.52;;;;;;;13.64;100.00;102219.50;5230884;28;20029;-67
2023/04/09 11:08:37;;;;;;;21.13;16.85;;;;;;;13.75;100.00;102213.38;5234557;28;20033;-67
2023/04/09 11:11:09;;;;;;;21.25;17.30;;;;;;;13.85;100.00;102209.97;5234761;28;20091;-67
2023/04/09 11:13:41;;;;;;;21.73;16.85;;;;;;;13.83;100.00;102209.22;5229907;28;20025;-67
2023/04/09 11:16:14;;;;;;;22.85;17.92;;;;;;;13.83;100.00;102206.53;5230537;28;20033;-67
2023/04/09 11:18:46;;;;;;;22.60;18.50;;;;;;;13.72;100.00;102204.56;5232112;28;20049;-67
2023/04/09 11:21:17;;;;;;;20.23;16.10;;;;;;;13.66;100.00;102207.69;5226442;28;20067;-67
2023/04/09 11:23:52;;;;;;;20.17;16.40;;;;;;;13.78;100.00;102213.19;5229987;28;20479;-67
2023/04/09 11:26:33;;;;;;;19.77;17.05;;;;;;;13.68;100.00;102213.81;5234326;28;20060;-67
2023/04/09 11:29:07;;;;;;;15.65;13.18;;;;;;;13.80;100.00;102204.06;5231837;28;20034;-67
2023/04/09 11:31:42;;;;;;;17.25;14.95;;;;;;;13.80;100.00;102200.53;5226653;28;20032;-67
2023/04/09 11:34:13;;;;;;;15.63;12.95;;;;;;;13.84;100.00;102200.19;5233126;28;20037;-67